sensor_id;sensor_type;location;lat;lon;timestamp;P1;durP1;ratioP1;P2;durP2;ratioP2
3101;SDS011;1561;42.666;23.392;2024-01-27T00:00:44;5.23;;;2.83;;
3101;SDS011;1561;42.666;23.392;2024-01-27T00:03:11;8.23;;;4.00;;
3101;SDS011;1561;42.666;23.392;2024-01-27T00:05:38;6.13;;;3.73;;
3101;SDS011;1561;42.666;23.392;2024-01-27T00:08:05;5.20;;;3.03;;
3101;SDS011;1561;42.666;23.392;2024-01-27T00:10:35;4.67;;;2.67;;
3101;SDS011;1561;42.666;23.392;2024-01-27T00:13:02;5.30;;;3.40;;
3101;SDS011;1561;42.666;23.392;2024-01-27T00:15:31;6.73;;;3.30;;
3101;SDS011;1561;42.666;23.392;2024-01-27T00:17:58;9.07;;;3.50;;
3101;SDS011;1561;42.666;23.392;2024-01-27T00:20:25;4.70;;;3.03;;
3101;SDS011;1561;42.666;23.392;2024-01-27T00:22:53;4.43;;;3.30;;
3101;SDS011;1561;42.666;23.392;2024-01-27T00:25:20;4.83;;;3.13;;
3101;SDS011;1561;42.666;23.392;2024-01-27T00:27:50;14.60;;;3.40;;
3101;SDS011;1561;42.666;23.392;2024-01-27T00:30:17;4.97;;;3.43;;
3101;SDS011;1561;42.666;23.392;2024-01-27T00:32:44;4.87;;;2.67;;
3101;SDS011;1561;42.666;23.392;2024-01-27T00:35:11;6.73;;;2.37;;
3101;SDS011;1561;42.666;23.392;2024-01-27T00:37:41;6.07;;;4.80;;
3101;SDS011;1561;42.666;23.392;2024-01-27T00:40:08;7.70;;;5.13;;
3101;SDS011;1561;42.666;23.392;2024-01-27T00:42:37;11.40;;;6.43;;
3101;SDS011;1561;42.666;23.392;2024-01-27T00:45:07;10.17;;;6.27;;
3101;SDS011;1561;42.666;23.392;2024-01-27T00:47:34;11.70;;;6.37;;
3101;SDS011;1561;42.666;23.392;2024-01-27T00:50:02;12.83;;;6.37;;
3101;SDS011;1561;42.666;23.392;2024-01-27T00:52:31;14.60;;;7.47;;
3101;SDS011;1561;42.666;23.392;2024-01-27T00:55:02;21.60;;;7.60;;
3101;SDS011;1561;42.666;23.392;2024-01-27T00:57:30;16.13;;;7.87;;
3101;SDS011;1561;42.666;23.392;2024-01-27T00:59:57;13.77;;;8.23;;
3101;SDS011;1561;42.666;23.392;2024-01-27T01:02:25;14.20;;;9.47;;
3101;SDS011;1561;42.666;23.392;2024-01-27T01:04:52;13.70;;;9.07;;
3101;SDS011;1561;42.666;23.392;2024-01-27T01:07:20;15.73;;;8.70;;
3101;SDS011;1561;42.666;23.392;2024-01-27T01:09:48;13.40;;;8.07;;
3101;SDS011;1561;42.666;23.392;2024-01-27T01:12:15;14.10;;;8.37;;
3101;SDS011;1561;42.666;23.392;2024-01-27T01:14:42;17.57;;;9.10;;
3101;SDS011;1561;42.666;23.392;2024-01-27T01:17:10;14.97;;;7.80;;
3101;SDS011;1561;42.666;23.392;2024-01-27T01:19:40;15.00;;;8.40;;
3101;SDS011;1561;42.666;23.392;2024-01-27T01:22:07;13.07;;;8.27;;
3101;SDS011;1561;42.666;23.392;2024-01-27T01:24:37;18.40;;;9.03;;
3101;SDS011;1561;42.666;23.392;2024-01-27T01:27:04;16.03;;;9.80;;
3101;SDS011;1561;42.666;23.392;2024-01-27T01:29:32;12.87;;;7.73;;
3101;SDS011;1561;42.666;23.392;2024-01-27T01:31:59;17.97;;;8.37;;
3101;SDS011;1561;42.666;23.392;2024-01-27T01:34:27;6.20;;;4.60;;
3101;SDS011;1561;42.666;23.392;2024-01-27T01:36:58;13.17;;;7.60;;
3101;SDS011;1561;42.666;23.392;2024-01-27T01:39:27;15.10;;;8.53;;
3101;SDS011;1561;42.666;23.392;2024-01-27T01:41:54;14.47;;;7.70;;
3101;SDS011;1561;42.666;23.392;2024-01-27T01:44:22;16.63;;;7.60;;
3101;SDS011;1561;42.666;23.392;2024-01-27T01:46:50;9.73;;;5.90;;
3101;SDS011;1561;42.666;23.392;2024-01-27T01:49:17;9.27;;;4.50;;
3101;SDS011;1561;42.666;23.392;2024-01-27T01:51:45;18.43;;;5.87;;
3101;SDS011;1561;42.666;23.392;2024-01-27T01:54:15;8.40;;;4.63;;
3101;SDS011;1561;42.666;23.392;2024-01-27T01:56:42;11.63;;;7.17;;
3101;SDS011;1561;42.666;23.392;2024-01-27T01:59:09;13.10;;;6.90;;
3101;SDS011;1561;42.666;23.392;2024-01-27T02:01:37;12.33;;;7.00;;
3101;SDS011;1561;42.666;23.392;2024-01-27T02:04:04;10.10;;;6.33;;
3101;SDS011;1561;42.666;23.392;2024-01-27T02:06:32;15.83;;;7.40;;
3101;SDS011;1561;42.666;23.392;2024-01-27T02:08:59;10.70;;;6.47;;
3101;SDS011;1561;42.666;23.392;2024-01-27T02:11:27;13.97;;;7.07;;
3101;SDS011;1561;42.666;23.392;2024-01-27T02:13:56;13.97;;;7.40;;
3101;SDS011;1561;42.666;23.392;2024-01-27T02:16:23;10.37;;;5.80;;
3101;SDS011;1561;42.666;23.392;2024-01-27T02:18:50;12.83;;;6.80;;
3101;SDS011;1561;42.666;23.392;2024-01-27T02:21:17;11.67;;;7.13;;
3101;SDS011;1561;42.666;23.392;2024-01-27T02:23:47;14.90;;;6.60;;
3101;SDS011;1561;42.666;23.392;2024-01-27T02:26:18;13.03;;;7.00;;
3101;SDS011;1561;42.666;23.392;2024-01-27T02:28:45;10.87;;;7.37;;
3101;SDS011;1561;42.666;23.392;2024-01-27T02:31:13;10.57;;;7.50;;
3101;SDS011;1561;42.666;23.392;2024-01-27T02:33:40;12.40;;;8.40;;
3101;SDS011;1561;42.666;23.392;2024-01-27T02:36:09;10.90;;;7.47;;
3101;SDS011;1561;42.666;23.392;2024-01-27T02:38:36;12.23;;;7.80;;
3101;SDS011;1561;42.666;23.392;2024-01-27T02:41:03;13.13;;;8.30;;
3101;SDS011;1561;42.666;23.392;2024-01-27T02:43:32;19.20;;;9.27;;
3101;SDS011;1561;42.666;23.392;2024-01-27T02:46:00;18.00;;;9.00;;
3101;SDS011;1561;42.666;23.392;2024-01-27T02:48:30;14.00;;;8.70;;
3101;SDS011;1561;42.666;23.392;2024-01-27T02:50:57;16.07;;;9.57;;
3101;SDS011;1561;42.666;23.392;2024-01-27T02:53:29;19.50;;;9.10;;
3101;SDS011;1561;42.666;23.392;2024-01-27T02:55:56;16.30;;;9.43;;
3101;SDS011;1561;42.666;23.392;2024-01-27T02:58:23;11.40;;;8.97;;
3101;SDS011;1561;42.666;23.392;2024-01-27T03:00:52;11.57;;;7.57;;
3101;SDS011;1561;42.666;23.392;2024-01-27T03:03:19;11.60;;;8.30;;
3101;SDS011;1561;42.666;23.392;2024-01-27T03:05:48;11.67;;;7.57;;
3101;SDS011;1561;42.666;23.392;2024-01-27T03:08:15;14.00;;;8.07;;
3101;SDS011;1561;42.666;23.392;2024-01-27T03:10:42;12.00;;;7.97;;
3101;SDS011;1561;42.666;23.392;2024-01-27T03:13:12;17.70;;;8.60;;
3101;SDS011;1561;42.666;23.392;2024-01-27T03:15:39;17.30;;;8.30;;
3101;SDS011;1561;42.666;23.392;2024-01-27T03:18:09;17.07;;;9.60;;
3101;SDS011;1561;42.666;23.392;2024-01-27T03:20:36;14.13;;;8.60;;
3101;SDS011;1561;42.666;23.392;2024-01-27T03:23:06;13.83;;;8.43;;
3101;SDS011;1561;42.666;23.392;2024-01-27T03:25:33;13.57;;;7.67;;
3101;SDS011;1561;42.666;23.392;2024-01-27T03:28:01;13.77;;;8.77;;
3101;SDS011;1561;42.666;23.392;2024-01-27T03:30:29;18.80;;;9.13;;
3101;SDS011;1561;42.666;23.392;2024-01-27T03:32:56;13.60;;;7.30;;
3101;SDS011;1561;42.666;23.392;2024-01-27T03:35:30;15.40;;;8.10;;
3101;SDS011;1561;42.666;23.392;2024-01-27T03:37:56;9.77;;;5.47;;
3101;SDS011;1561;42.666;23.392;2024-01-27T03:40:24;6.27;;;5.27;;
3101;SDS011;1561;42.666;23.392;2024-01-27T03:42:52;10.20;;;5.70;;
3101;SDS011;1561;42.666;23.392;2024-01-27T03:45:18;5.93;;;3.80;;
3101;SDS011;1561;42.666;23.392;2024-01-27T03:47:45;9.00;;;3.40;;
3101;SDS011;1561;42.666;23.392;2024-01-27T03:50:12;4.20;;;2.40;;
3101;SDS011;1561;42.666;23.392;2024-01-27T03:52:41;3.90;;;2.63;;
3101;SDS011;1561;42.666;23.392;2024-01-27T03:55:09;4.63;;;2.60;;
3101;SDS011;1561;42.666;23.392;2024-01-27T03:57:37;3.77;;;2.00;;
3101;SDS011;1561;42.666;23.392;2024-01-27T04:00:04;3.20;;;2.20;;
3101;SDS011;1561;42.666;23.392;2024-01-27T04:02:32;4.33;;;2.73;;
3101;SDS011;1561;42.666;23.392;2024-01-27T04:05:00;4.40;;;2.23;;
3101;SDS011;1561;42.666;23.392;2024-01-27T04:07:27;3.03;;;2.10;;
3101;SDS011;1561;42.666;23.392;2024-01-27T04:09:56;5.80;;;2.53;;
3101;SDS011;1561;42.666;23.392;2024-01-27T04:12:23;5.67;;;2.77;;
3101;SDS011;1561;42.666;23.392;2024-01-27T04:14:50;6.03;;;3.00;;
3101;SDS011;1561;42.666;23.392;2024-01-27T04:17:17;5.50;;;3.10;;
3101;SDS011;1561;42.666;23.392;2024-01-27T04:19:45;2.90;;;2.60;;
3101;SDS011;1561;42.666;23.392;2024-01-27T04:22:12;6.13;;;2.80;;
3101;SDS011;1561;42.666;23.392;2024-01-27T04:24:40;3.33;;;2.53;;
3101;SDS011;1561;42.666;23.392;2024-01-27T04:27:10;2.97;;;2.40;;
3101;SDS011;1561;42.666;23.392;2024-01-27T04:29:37;7.07;;;2.67;;
3101;SDS011;1561;42.666;23.392;2024-01-27T04:32:04;5.07;;;3.27;;
3101;SDS011;1561;42.666;23.392;2024-01-27T04:34:31;7.90;;;3.00;;
3101;SDS011;1561;42.666;23.392;2024-01-27T04:36:58;3.43;;;2.63;;
3101;SDS011;1561;42.666;23.392;2024-01-27T04:39:26;4.73;;;3.07;;
3101;SDS011;1561;42.666;23.392;2024-01-27T04:41:53;5.23;;;2.83;;
3101;SDS011;1561;42.666;23.392;2024-01-27T04:44:24;4.63;;;3.07;;
3101;SDS011;1561;42.666;23.392;2024-01-27T04:46:53;4.40;;;2.57;;
3101;SDS011;1561;42.666;23.392;2024-01-27T04:49:20;5.83;;;3.47;;
3101;SDS011;1561;42.666;23.392;2024-01-27T04:51:47;6.77;;;3.30;;
3101;SDS011;1561;42.666;23.392;2024-01-27T04:54:15;6.73;;;3.30;;
3101;SDS011;1561;42.666;23.392;2024-01-27T04:56:42;6.27;;;3.90;;
3101;SDS011;1561;42.666;23.392;2024-01-27T04:59:09;7.70;;;4.37;;
3101;SDS011;1561;42.666;23.392;2024-01-27T05:01:43;6.73;;;4.57;;
3101;SDS011;1561;42.666;23.392;2024-01-27T05:04:11;11.73;;;4.70;;
3101;SDS011;1561;42.666;23.392;2024-01-27T05:06:38;11.03;;;5.10;;
3101;SDS011;1561;42.666;23.392;2024-01-27T05:09:12;10.77;;;5.47;;
3101;SDS011;1561;42.666;23.392;2024-01-27T05:11:39;12.30;;;4.47;;
3101;SDS011;1561;42.666;23.392;2024-01-27T05:14:08;8.03;;;4.30;;
3101;SDS011;1561;42.666;23.392;2024-01-27T05:16:35;8.13;;;4.70;;
3101;SDS011;1561;42.666;23.392;2024-01-27T05:19:03;10.87;;;4.80;;
3101;SDS011;1561;42.666;23.392;2024-01-27T05:21:32;12.03;;;5.10;;
3101;SDS011;1561;42.666;23.392;2024-01-27T05:23:59;8.37;;;4.70;;
3101;SDS011;1561;42.666;23.392;2024-01-27T05:26:27;7.43;;;5.20;;
3101;SDS011;1561;42.666;23.392;2024-01-27T05:28:53;9.97;;;6.07;;
3101;SDS011;1561;42.666;23.392;2024-01-27T05:31:20;8.93;;;6.17;;
3101;SDS011;1561;42.666;23.392;2024-01-27T05:33:48;10.43;;;6.73;;
3101;SDS011;1561;42.666;23.392;2024-01-27T05:36:16;10.03;;;7.20;;
3101;SDS011;1561;42.666;23.392;2024-01-27T05:38:44;13.27;;;8.00;;
3101;SDS011;1561;42.666;23.392;2024-01-27T05:41:11;13.60;;;8.17;;
3101;SDS011;1561;42.666;23.392;2024-01-27T05:43:38;15.40;;;8.87;;
3101;SDS011;1561;42.666;23.392;2024-01-27T05:46:05;16.87;;;8.93;;
3101;SDS011;1561;42.666;23.392;2024-01-27T05:48:34;16.23;;;9.20;;
3101;SDS011;1561;42.666;23.392;2024-01-27T05:51:02;11.00;;;7.90;;
3101;SDS011;1561;42.666;23.392;2024-01-27T05:53:31;30.53;;;13.50;;
3101;SDS011;1561;42.666;23.392;2024-01-27T05:56:01;22.30;;;10.23;;
3101;SDS011;1561;42.666;23.392;2024-01-27T05:58:30;16.13;;;9.80;;
3101;SDS011;1561;42.666;23.392;2024-01-27T06:00:56;16.23;;;9.00;;
3101;SDS011;1561;42.666;23.392;2024-01-27T06:03:23;20.77;;;10.70;;
3101;SDS011;1561;42.666;23.392;2024-01-27T06:05:51;16.03;;;10.07;;
3101;SDS011;1561;42.666;23.392;2024-01-27T06:08:18;25.47;;;12.60;;
3101;SDS011;1561;42.666;23.392;2024-01-27T06:10:47;25.20;;;11.47;;
3101;SDS011;1561;42.666;23.392;2024-01-27T06:13:14;18.93;;;11.53;;
3101;SDS011;1561;42.666;23.392;2024-01-27T06:15:43;21.93;;;11.90;;
3101;SDS011;1561;42.666;23.392;2024-01-27T06:18:12;16.80;;;9.83;;
3101;SDS011;1561;42.666;23.392;2024-01-27T06:20:41;13.80;;;7.40;;
3101;SDS011;1561;42.666;23.392;2024-01-27T06:23:09;15.23;;;7.70;;
3101;SDS011;1561;42.666;23.392;2024-01-27T06:25:38;12.30;;;7.87;;
3101;SDS011;1561;42.666;23.392;2024-01-27T06:28:08;11.90;;;5.30;;
3101;SDS011;1561;42.666;23.392;2024-01-27T06:30:35;9.93;;;6.80;;
3101;SDS011;1561;42.666;23.392;2024-01-27T06:33:03;11.50;;;5.10;;
3101;SDS011;1561;42.666;23.392;2024-01-27T06:35:30;7.07;;;3.93;;
3101;SDS011;1561;42.666;23.392;2024-01-27T06:37:57;9.03;;;4.63;;
3101;SDS011;1561;42.666;23.392;2024-01-27T06:40:27;11.67;;;6.27;;
3101;SDS011;1561;42.666;23.392;2024-01-27T06:42:54;10.37;;;6.10;;
3101;SDS011;1561;42.666;23.392;2024-01-27T06:45:25;11.33;;;5.90;;
3101;SDS011;1561;42.666;23.392;2024-01-27T06:47:54;9.00;;;5.20;;
3101;SDS011;1561;42.666;23.392;2024-01-27T06:50:22;3.40;;;2.80;;
3101;SDS011;1561;42.666;23.392;2024-01-27T06:52:52;6.90;;;4.57;;
3101;SDS011;1561;42.666;23.392;2024-01-27T06:55:19;3.50;;;2.43;;
3101;SDS011;1561;42.666;23.392;2024-01-27T06:57:46;5.10;;;3.30;;
3101;SDS011;1561;42.666;23.392;2024-01-27T07:00:21;4.13;;;1.97;;
3101;SDS011;1561;42.666;23.392;2024-01-27T07:02:50;3.33;;;2.17;;
3101;SDS011;1561;42.666;23.392;2024-01-27T07:05:17;4.50;;;2.10;;
3101;SDS011;1561;42.666;23.392;2024-01-27T07:07:44;1.87;;;1.77;;
3101;SDS011;1561;42.666;23.392;2024-01-27T07:10:11;1.97;;;1.77;;
3101;SDS011;1561;42.666;23.392;2024-01-27T07:12:38;2.03;;;1.40;;
3101;SDS011;1561;42.666;23.392;2024-01-27T07:15:06;2.20;;;1.60;;
3101;SDS011;1561;42.666;23.392;2024-01-27T07:17:36;2.40;;;1.90;;
3101;SDS011;1561;42.666;23.392;2024-01-27T07:20:17;2.10;;;1.17;;
3101;SDS011;1561;42.666;23.392;2024-01-27T07:22:56;3.37;;;1.63;;
3101;SDS011;1561;42.666;23.392;2024-01-27T07:25:23;1.30;;;1.20;;
3101;SDS011;1561;42.666;23.392;2024-01-27T07:27:50;1.20;;;1.10;;
3101;SDS011;1561;42.666;23.392;2024-01-27T07:30:20;2.73;;;1.60;;
3101;SDS011;1561;42.666;23.392;2024-01-27T07:32:47;3.00;;;1.50;;
3101;SDS011;1561;42.666;23.392;2024-01-27T07:35:15;2.20;;;2.00;;
3101;SDS011;1561;42.666;23.392;2024-01-27T07:37:43;1.97;;;1.83;;
3101;SDS011;1561;42.666;23.392;2024-01-27T07:40:13;1.50;;;1.40;;
3101;SDS011;1561;42.666;23.392;2024-01-27T07:42:41;2.10;;;1.90;;
3101;SDS011;1561;42.666;23.392;2024-01-27T07:45:09;2.90;;;2.13;;
3101;SDS011;1561;42.666;23.392;2024-01-27T07:47:39;2.10;;;1.43;;
3101;SDS011;1561;42.666;23.392;2024-01-27T07:50:06;5.50;;;2.27;;
3101;SDS011;1561;42.666;23.392;2024-01-27T07:52:38;2.50;;;2.30;;
3101;SDS011;1561;42.666;23.392;2024-01-27T07:55:09;2.47;;;1.70;;
3101;SDS011;1561;42.666;23.392;2024-01-27T07:57:40;3.17;;;2.60;;
3101;SDS011;1561;42.666;23.392;2024-01-27T08:00:07;2.70;;;2.50;;
3101;SDS011;1561;42.666;23.392;2024-01-27T08:02:39;4.07;;;2.67;;
3101;SDS011;1561;42.666;23.392;2024-01-27T08:05:06;2.80;;;2.57;;
3101;SDS011;1561;42.666;23.392;2024-01-27T08:07:34;2.50;;;2.30;;
3101;SDS011;1561;42.666;23.392;2024-01-27T08:10:02;5.10;;;2.20;;
3101;SDS011;1561;42.666;23.392;2024-01-27T08:12:30;4.40;;;3.20;;
3101;SDS011;1561;42.666;23.392;2024-01-27T08:14:57;4.17;;;3.60;;
3101;SDS011;1561;42.666;23.392;2024-01-27T08:17:31;3.27;;;2.90;;
3101;SDS011;1561;42.666;23.392;2024-01-27T08:19:59;4.10;;;3.27;;
3101;SDS011;1561;42.666;23.392;2024-01-27T08:22:26;4.07;;;3.33;;
3101;SDS011;1561;42.666;23.392;2024-01-27T08:24:54;3.93;;;3.37;;
3101;SDS011;1561;42.666;23.392;2024-01-27T08:27:23;4.63;;;3.40;;
3101;SDS011;1561;42.666;23.392;2024-01-27T08:29:50;4.70;;;3.07;;
3101;SDS011;1561;42.666;23.392;2024-01-27T08:32:18;5.17;;;3.00;;
3101;SDS011;1561;42.666;23.392;2024-01-27T08:34:47;2.93;;;2.73;;
3101;SDS011;1561;42.666;23.392;2024-01-27T08:37:18;2.80;;;2.60;;
3101;SDS011;1561;42.666;23.392;2024-01-27T08:39:46;4.13;;;3.73;;
3101;SDS011;1561;42.666;23.392;2024-01-27T08:42:17;3.33;;;3.03;;
3101;SDS011;1561;42.666;23.392;2024-01-27T08:44:46;4.10;;;3.00;;
3101;SDS011;1561;42.666;23.392;2024-01-27T08:47:14;7.97;;;3.33;;
3101;SDS011;1561;42.666;23.392;2024-01-27T08:49:42;5.03;;;3.63;;
3101;SDS011;1561;42.666;23.392;2024-01-27T08:52:24;4.90;;;3.20;;
3101;SDS011;1561;42.666;23.392;2024-01-27T08:54:52;3.50;;;3.20;;
3101;SDS011;1561;42.666;23.392;2024-01-27T08:57:19;3.77;;;3.43;;
3101;SDS011;1561;42.666;23.392;2024-01-27T08:59:48;5.93;;;3.90;;
3101;SDS011;1561;42.666;23.392;2024-01-27T09:02:15;3.60;;;3.30;;
3101;SDS011;1561;42.666;23.392;2024-01-27T09:04:48;4.67;;;3.50;;
3101;SDS011;1561;42.666;23.392;2024-01-27T09:07:16;3.57;;;3.27;;
3101;SDS011;1561;42.666;23.392;2024-01-27T09:09:49;3.07;;;2.80;;
3101;SDS011;1561;42.666;23.392;2024-01-27T09:12:36;3.50;;;3.20;;
3101;SDS011;1561;42.666;23.392;2024-01-27T09:15:08;3.60;;;3.30;;
3101;SDS011;1561;42.666;23.392;2024-01-27T09:17:39;3.83;;;3.07;;
3101;SDS011;1561;42.666;23.392;2024-01-27T09:20:10;4.47;;;2.20;;
3101;SDS011;1561;42.666;23.392;2024-01-27T09:22:39;1.97;;;1.80;;
3101;SDS011;1561;42.666;23.392;2024-01-27T09:25:07;3.20;;;3.00;;
3101;SDS011;1561;42.666;23.392;2024-01-27T09:27:34;2.77;;;2.57;;
3101;SDS011;1561;42.666;23.392;2024-01-27T09:30:05;2.87;;;2.67;;
3101;SDS011;1561;42.666;23.392;2024-01-27T09:32:37;3.20;;;2.90;;
3101;SDS011;1561;42.666;23.392;2024-01-27T09:35:07;3.00;;;2.20;;
3101;SDS011;1561;42.666;23.392;2024-01-27T09:37:36;3.07;;;2.77;;
3101;SDS011;1561;42.666;23.392;2024-01-27T09:40:08;2.40;;;2.20;;
3101;SDS011;1561;42.666;23.392;2024-01-27T09:42:37;5.50;;;2.50;;
3101;SDS011;1561;42.666;23.392;2024-01-27T09:45:14;3.43;;;3.13;;
3101;SDS011;1561;42.666;23.392;2024-01-27T09:47:44;4.00;;;3.40;;
3101;SDS011;1561;42.666;23.392;2024-01-27T09:50:17;4.37;;;3.00;;
3101;SDS011;1561;42.666;23.392;2024-01-27T09:52:45;3.70;;;3.20;;
3101;SDS011;1561;42.666;23.392;2024-01-27T09:55:16;3.60;;;3.30;;
3101;SDS011;1561;42.666;23.392;2024-01-27T09:57:49;3.37;;;2.90;;
3101;SDS011;1561;42.666;23.392;2024-01-27T10:00:23;3.23;;;2.93;;
3101;SDS011;1561;42.666;23.392;2024-01-27T10:02:56;3.30;;;2.60;;
3101;SDS011;1561;42.666;23.392;2024-01-27T10:05:31;2.37;;;2.00;;
3101;SDS011;1561;42.666;23.392;2024-01-27T10:08:00;2.90;;;2.70;;
3101;SDS011;1561;42.666;23.392;2024-01-27T10:10:28;3.80;;;2.80;;
3101;SDS011;1561;42.666;23.392;2024-01-27T10:12:56;3.13;;;2.93;;
3101;SDS011;1561;42.666;23.392;2024-01-27T10:15:28;3.90;;;2.70;;
3101;SDS011;1561;42.666;23.392;2024-01-27T10:18:05;2.77;;;2.33;;
3101;SDS011;1561;42.666;23.392;2024-01-27T10:20:44;2.33;;;2.23;;
3101;SDS011;1561;42.666;23.392;2024-01-27T10:23:16;7.00;;;2.20;;
3101;SDS011;1561;42.666;23.392;2024-01-27T10:25:45;3.20;;;2.90;;
3101;SDS011;1561;42.666;23.392;2024-01-27T10:28:17;4.60;;;2.67;;
3101;SDS011;1561;42.666;23.392;2024-01-27T10:30:47;2.90;;;2.70;;
3101;SDS011;1561;42.666;23.392;2024-01-27T10:33:14;3.30;;;2.80;;
3101;SDS011;1561;42.666;23.392;2024-01-27T10:35:42;3.70;;;2.73;;
3101;SDS011;1561;42.666;23.392;2024-01-27T10:38:11;3.20;;;2.93;;
3101;SDS011;1561;42.666;23.392;2024-01-27T10:40:39;2.90;;;2.67;;
3101;SDS011;1561;42.666;23.392;2024-01-27T10:43:12;3.87;;;2.80;;
3101;SDS011;1561;42.666;23.392;2024-01-27T10:45:46;2.53;;;2.33;;
3101;SDS011;1561;42.666;23.392;2024-01-27T10:48:15;2.60;;;2.43;;
3101;SDS011;1561;42.666;23.392;2024-01-27T10:50:44;3.03;;;2.83;;
3101;SDS011;1561;42.666;23.392;2024-01-27T10:53:19;3.00;;;2.80;;
3101;SDS011;1561;42.666;23.392;2024-01-27T10:56:00;4.60;;;2.80;;
3101;SDS011;1561;42.666;23.392;2024-01-27T10:58:34;2.63;;;2.40;;
3101;SDS011;1561;42.666;23.392;2024-01-27T11:01:16;2.37;;;2.27;;
3101;SDS011;1561;42.666;23.392;2024-01-27T11:03:57;2.50;;;2.30;;
3101;SDS011;1561;42.666;23.392;2024-01-27T11:06:28;2.27;;;2.03;;
3101;SDS011;1561;42.666;23.392;2024-01-27T11:09:04;2.90;;;2.70;;
3101;SDS011;1561;42.666;23.392;2024-01-27T11:11:39;4.20;;;3.30;;
3101;SDS011;1561;42.666;23.392;2024-01-27T11:14:08;3.30;;;3.00;;
3101;SDS011;1561;42.666;23.392;2024-01-27T11:16:37;5.47;;;3.47;;
3101;SDS011;1561;42.666;23.392;2024-01-27T11:19:09;4.90;;;3.00;;
3101;SDS011;1561;42.666;23.392;2024-01-27T11:21:38;3.43;;;3.13;;
3101;SDS011;1561;42.666;23.392;2024-01-27T11:24:14;4.57;;;3.50;;
3101;SDS011;1561;42.666;23.392;2024-01-27T11:26:44;3.93;;;3.53;;
3101;SDS011;1561;42.666;23.392;2024-01-27T11:29:15;4.13;;;3.10;;
3101;SDS011;1561;42.666;23.392;2024-01-27T11:31:47;3.40;;;3.10;;
3101;SDS011;1561;42.666;23.392;2024-01-27T11:34:19;4.17;;;3.83;;
3101;SDS011;1561;42.666;23.392;2024-01-27T11:36:49;4.10;;;3.57;;
3101;SDS011;1561;42.666;23.392;2024-01-27T11:39:26;5.27;;;3.80;;
3101;SDS011;1561;42.666;23.392;2024-01-27T11:42:04;10.10;;;5.40;;
3101;SDS011;1561;42.666;23.392;2024-01-27T11:44:33;5.83;;;3.93;;
3101;SDS011;1561;42.666;23.392;2024-01-27T11:47:14;4.17;;;3.80;;
3101;SDS011;1561;42.666;23.392;2024-01-27T11:49:41;3.80;;;2.93;;
3101;SDS011;1561;42.666;23.392;2024-01-27T11:52:09;3.50;;;3.20;;
3101;SDS011;1561;42.666;23.392;2024-01-27T11:54:37;6.00;;;3.67;;
3101;SDS011;1561;42.666;23.392;2024-01-27T11:57:04;6.40;;;4.97;;
3101;SDS011;1561;42.666;23.392;2024-01-27T11:59:34;4.40;;;3.40;;
3101;SDS011;1561;42.666;23.392;2024-01-27T12:02:09;5.77;;;3.60;;
3101;SDS011;1561;42.666;23.392;2024-01-27T12:04:40;4.53;;;4.13;;
3101;SDS011;1561;42.666;23.392;2024-01-27T12:07:07;3.43;;;2.87;;
3101;SDS011;1561;42.666;23.392;2024-01-27T12:09:37;4.90;;;3.23;;
3101;SDS011;1561;42.666;23.392;2024-01-27T12:12:05;3.87;;;3.50;;
3101;SDS011;1561;42.666;23.392;2024-01-27T12:14:45;3.73;;;3.43;;
3101;SDS011;1561;42.666;23.392;2024-01-27T12:17:16;4.43;;;3.13;;
3101;SDS011;1561;42.666;23.392;2024-01-27T12:19:47;4.60;;;4.20;;
3101;SDS011;1561;42.666;23.392;2024-01-27T12:22:23;3.70;;;3.40;;
3101;SDS011;1561;42.666;23.392;2024-01-27T12:24:53;4.00;;;3.10;;
3101;SDS011;1561;42.666;23.392;2024-01-27T12:27:21;4.03;;;3.73;;
3101;SDS011;1561;42.666;23.392;2024-01-27T12:29:49;4.10;;;3.10;;
3101;SDS011;1561;42.666;23.392;2024-01-27T12:32:23;2.60;;;2.40;;
3101;SDS011;1561;42.666;23.392;2024-01-27T12:34:51;5.20;;;4.33;;
3101;SDS011;1561;42.666;23.392;2024-01-27T12:37:21;3.57;;;3.10;;
3101;SDS011;1561;42.666;23.392;2024-01-27T12:39:49;3.20;;;2.77;;
3101;SDS011;1561;42.666;23.392;2024-01-27T12:42:17;3.17;;;2.97;;
3101;SDS011;1561;42.666;23.392;2024-01-27T12:44:44;6.27;;;5.03;;
3101;SDS011;1561;42.666;23.392;2024-01-27T12:47:13;3.10;;;2.83;;
3101;SDS011;1561;42.666;23.392;2024-01-27T12:49:43;3.87;;;3.33;;
3101;SDS011;1561;42.666;23.392;2024-01-27T12:52:10;2.90;;;2.70;;
3101;SDS011;1561;42.666;23.392;2024-01-27T12:54:39;2.63;;;2.43;;
3101;SDS011;1561;42.666;23.392;2024-01-27T12:57:07;4.77;;;3.87;;
3101;SDS011;1561;42.666;23.392;2024-01-27T12:59:35;5.53;;;3.03;;
3101;SDS011;1561;42.666;23.392;2024-01-27T13:02:04;3.73;;;3.27;;
3101;SDS011;1561;42.666;23.392;2024-01-27T13:04:31;3.53;;;3.30;;
3101;SDS011;1561;42.666;23.392;2024-01-27T13:07:01;3.40;;;3.10;;
3101;SDS011;1561;42.666;23.392;2024-01-27T13:09:30;4.27;;;3.90;;
3101;SDS011;1561;42.666;23.392;2024-01-27T13:11:57;3.37;;;3.17;;
3101;SDS011;1561;42.666;23.392;2024-01-27T13:14:24;2.90;;;2.70;;
3101;SDS011;1561;42.666;23.392;2024-01-27T13:16:55;2.47;;;2.27;;
3101;SDS011;1561;42.666;23.392;2024-01-27T13:19:25;3.70;;;3.30;;
3101;SDS011;1561;42.666;23.392;2024-01-27T13:21:56;10.03;;;3.13;;
3101;SDS011;1561;42.666;23.392;2024-01-27T13:24:25;2.87;;;2.67;;
3101;SDS011;1561;42.666;23.392;2024-01-27T13:26:52;2.30;;;2.10;;
3101;SDS011;1561;42.666;23.392;2024-01-27T13:29:23;3.00;;;2.80;;
3101;SDS011;1561;42.666;23.392;2024-01-27T13:31:54;3.17;;;2.87;;
3101;SDS011;1561;42.666;23.392;2024-01-27T13:34:23;4.07;;;2.40;;
3101;SDS011;1561;42.666;23.392;2024-01-27T13:36:53;3.50;;;3.20;;
3101;SDS011;1561;42.666;23.392;2024-01-27T13:39:23;2.67;;;2.40;;
3101;SDS011;1561;42.666;23.392;2024-01-27T13:41:55;3.43;;;2.70;;
3101;SDS011;1561;42.666;23.392;2024-01-27T13:44:22;3.00;;;2.27;;
3101;SDS011;1561;42.666;23.392;2024-01-27T13:46:55;5.37;;;2.70;;
3101;SDS011;1561;42.666;23.392;2024-01-27T13:49:27;2.57;;;2.47;;
3101;SDS011;1561;42.666;23.392;2024-01-27T13:52:00;2.90;;;2.70;;
3101;SDS011;1561;42.666;23.392;2024-01-27T13:54:38;3.53;;;2.07;;
3101;SDS011;1561;42.666;23.392;2024-01-27T13:57:14;3.37;;;3.07;;
3101;SDS011;1561;42.666;23.392;2024-01-27T13:59:42;3.77;;;2.50;;
3101;SDS011;1561;42.666;23.392;2024-01-27T14:02:12;2.90;;;2.70;;
3101;SDS011;1561;42.666;23.392;2024-01-27T14:04:41;6.03;;;4.43;;
3101;SDS011;1561;42.666;23.392;2024-01-27T14:07:09;3.30;;;3.00;;
3101;SDS011;1561;42.666;23.392;2024-01-27T14:09:38;4.53;;;2.73;;
3101;SDS011;1561;42.666;23.392;2024-01-27T14:12:09;2.70;;;2.47;;
3101;SDS011;1561;42.666;23.392;2024-01-27T14:14:37;2.00;;;1.90;;
3101;SDS011;1561;42.666;23.392;2024-01-27T14:17:16;3.60;;;2.47;;
3101;SDS011;1561;42.666;23.392;2024-01-27T14:19:45;2.17;;;2.07;;
3101;SDS011;1561;42.666;23.392;2024-01-27T14:22:13;3.50;;;2.20;;
3101;SDS011;1561;42.666;23.392;2024-01-27T14:24:43;2.23;;;1.90;;
3101;SDS011;1561;42.666;23.392;2024-01-27T14:27:13;3.63;;;1.87;;
3101;SDS011;1561;42.666;23.392;2024-01-27T14:29:42;2.17;;;1.97;;
3101;SDS011;1561;42.666;23.392;2024-01-27T14:32:13;2.33;;;2.13;;
3101;SDS011;1561;42.666;23.392;2024-01-27T14:34:39;4.27;;;2.30;;
3101;SDS011;1561;42.666;23.392;2024-01-27T14:37:09;3.13;;;2.40;;
3101;SDS011;1561;42.666;23.392;2024-01-27T14:39:39;2.90;;;2.40;;
3101;SDS011;1561;42.666;23.392;2024-01-27T14:42:11;3.43;;;2.20;;
3101;SDS011;1561;42.666;23.392;2024-01-27T14:44:40;2.40;;;2.20;;
3101;SDS011;1561;42.666;23.392;2024-01-27T14:47:10;4.43;;;2.33;;
3101;SDS011;1561;42.666;23.392;2024-01-27T14:49:40;3.30;;;2.53;;
3101;SDS011;1561;42.666;23.392;2024-01-27T14:52:10;19.70;;;10.48;;
3101;SDS011;1561;42.666;23.392;2024-01-27T14:54:43;4.80;;;2.87;;
3101;SDS011;1561;42.666;23.392;2024-01-27T14:57:14;2.63;;;2.43;;
3101;SDS011;1561;42.666;23.392;2024-01-27T14:59:42;4.27;;;2.40;;
3101;SDS011;1561;42.666;23.392;2024-01-27T15:02:27;3.10;;;2.53;;
3101;SDS011;1561;42.666;23.392;2024-01-27T15:04:56;4.23;;;2.40;;
3101;SDS011;1561;42.666;23.392;2024-01-27T15:07:24;1.63;;;1.53;;
3101;SDS011;1561;42.666;23.392;2024-01-27T15:09:55;3.53;;;2.50;;